Monroeville, AL

6:22 AM CDT on August 21, 2014 (GMT -0500)
Middleton | Change Station
CLOSE
Current Station
Airport
Location: Evergreen,
Elevation: 256 ft
Nearby Weather Stations
Active Advisory: Special Statement

Elev 256 ft 31.42 °N, 87.04 °W | Updated 29 minutes ago

Clear
Clear
75 °F
Feels Like 75 °F
N
0
Wind Variable Wind from North

Today
High -- | Low -- °F
--% Chance of Precip.
Yesterday
High -- | Low -- °F
Precip. -- in
6:18 AM 7:25 PM
Waning Crescent, 15% visible
Pressure 30.11 in
Visibility 7.0 miles
Clouds Clear
Dew Point 73 °F
Humidity 94%
Rainfall 0.00 in
Snow Depth Not available.
UV 0 out of 12
Pollen 8.60 out of 12
Air Quality Not available.
Flu Activity Not available.
METAR KGZH 211053Z AUTO 00000KT 7SM CLR 24/23 A3012 RMK AO2 SLP196 T02390228

More Conditions Fewer Conditions

Pressure 30.11 in
Visibility 7.0 miles
Clouds Clear
Dew Point 73 °F
Humidity 94%
Rainfall 0.00 in
Snow Depth Not available.
UV 0 out of 12
Pollen 8.60 out of 12
Air Quality Not available.
Flu Activity Not available.
METAR KGZH 211053Z AUTO 00000KT 7SM CLR 24/23 A3012 RMK AO2 SLP196 T02390228

More Conditions Fewer Conditions

10-Day Weather Forecast

Almanac

Astronomy

Aug. 21, 2014 Rise Set
Actual Time 6:18 AM CDT 7:25 PM CDT
Civil Twilight 5:53 AM CDT 7:51 PM CDT
Nautical Twilight 5:23 AM CDT 8:21 PM CDT
Astronomical Twilight 4:52 AM CDT 8:52 PM CDT
Moon 2:54 AM CDT 4:49 PM CDT
Length of Visible Light 13h 58m
Length of Day
13h 07m
Tomorrow will be 1m 45s shorter.
Waning Crescent, 15% of the Moon is Illuminated
Today
Waning Crescent
Aug 25
New
Sep 2
First Quarter
Sep 8
Full
Sep 15
Last Quarter

Today's Extremes

State Highs State Lows

Community

WunderPhotos

Upload Photos

1,745,870 photos uploaded!

Nearby

Snow Depth

Station Depth Elevation
No new snow has been reported.

Earthquake Activity

City Distance Mag. Time & Date
No recent earthquake activity has been reported nearby.
Minimum magnitude displayed is 2.5.

Coastal Water Temperatures

Place Temperature
No Stations Reporting

Nearby Weather Stations